Maldives Meteorological Service

TAFS

Station TAF
VRMM
VRMM 191100Z 1912/2018 27010KT 9999 SCT018TCU TEMPO 1912/1918 FEW018CB=
VRMH
VRMH 191100Z 1912/2012 27009KT 9999 SCT018TCU TEMPO 1913/1919 FEW018CB=
VRMK
VRMK 191100Z 1912/2012 24007KT 9999 FEW018TCU TEMPO 1912/1918 6000 –SHRA SCT017 FEW018CB=
VRMT
VRMT 191100Z 1912/2012 25007KT 9999 FEW018TCU TEMPO 1912/1918 4000 TSRA SCT015 FEW017CB=
VRMG
VRMG 191100Z 1912/2018 24006KT 9999 FEW018TCU TEMPO 1912/1918 4000 TSRA SCT016 FEW017CB=